createdAt,value
2023-02-26T00:00:40.140Z,18.65
2023-02-26T00:03:07.442Z,11.57
2023-02-26T00:05:34.739Z,16.55
2023-02-26T00:08:02.083Z,14.07
2023-02-26T00:10:29.496Z,13.30
2023-02-26T00:12:57.200Z,12.43
2023-02-26T00:15:24.768Z,12.77
2023-02-26T00:18:15.207Z,13.10
2023-02-26T00:20:45.884Z,14.73
2023-02-26T00:23:14.672Z,10.75
2023-02-26T00:25:42.673Z,11.30
2023-02-26T00:28:10.525Z,13.85
2023-02-26T00:30:38.460Z,12.60
2023-02-26T00:33:06.468Z,19.60
2023-02-26T00:35:35.350Z,18.60
2023-02-26T00:38:05.214Z,14.32
2023-02-26T00:40:48.347Z,16.63
2023-02-26T00:43:19.044Z,12.32
2023-02-26T00:45:55.954Z,13.40
2023-02-26T00:48:35.120Z,15.75
2023-02-26T00:51:07.177Z,15.15
2023-02-26T00:53:44.690Z,12.90
2023-02-26T00:56:12.017Z,14.93
2023-02-26T00:58:39.380Z,14.00
2023-02-26T01:01:06.793Z,13.27
2023-02-26T01:03:34.635Z,10.60
2023-02-26T01:06:02.407Z,17.55
2023-02-26T01:08:34.574Z,14.27
2023-02-26T01:11:02.248Z,16.48
2023-02-26T01:13:29.936Z,13.55
2023-02-26T01:16:05.060Z,14.32
2023-02-26T01:18:38.531Z,11.65
2023-02-26T01:21:09.182Z,13.32
2023-02-26T01:23:41.030Z,12.90
2023-02-26T01:26:24.951Z,10.50
2023-02-26T01:28:53.724Z,13.82
2023-02-26T01:31:48.902Z,13.52
2023-02-26T01:34:18.877Z,14.15
2023-02-26T01:37:14.556Z,19.45
2023-02-26T01:40:10.016Z,10.48
2023-02-26T01:42:38.095Z,16.05
2023-02-26T01:45:16.286Z,16.35
2023-02-26T01:47:56.859Z,14.30
2023-02-26T01:50:29.930Z,14.02
2023-02-26T01:53:24.842Z,20.50
2023-02-26T01:55:59.110Z,13.82
2023-02-26T02:03:24.630Z,13.73
2023-02-26T02:06:05.083Z,12.85
2023-02-26T02:08:35.615Z,16.15
2023-02-26T02:11:05.045Z,17.73
2023-02-26T02:13:46.310Z,15.30
2023-02-26T02:16:18.232Z,14.40
2023-02-26T02:19:28.831Z,16.10
2023-02-26T02:22:05.224Z,15.27
2023-02-26T02:24:50.938Z,18.85
2023-02-26T02:27:19.435Z,13.70
2023-02-26T02:30:11.650Z,16.77
2023-02-26T02:32:58.004Z,14.25
2023-02-26T02:35:46.535Z,13.63
2023-02-26T02:38:49.761Z,12.68
2023-02-26T02:41:32.746Z,15.50
2023-02-26T02:44:01.728Z,16.90
2023-02-26T02:46:31.955Z,21.20
2023-02-26T02:49:05.194Z,14.95
2023-02-26T02:51:36.292Z,10.70
2023-02-26T02:54:17.198Z,13.43
2023-02-26T02:56:51.716Z,8.93
2023-02-26T02:59:44.462Z,13.75
2023-02-26T03:02:29.074Z,15.10
2023-02-26T03:04:57.126Z,8.70
2023-02-26T03:07:24.811Z,10.27
2023-02-26T03:09:52.717Z,13.15
2023-02-26T03:12:20.539Z,9.60
2023-02-26T03:14:49.462Z,13.63
2023-02-26T03:17:23.308Z,12.00
2023-02-26T03:20:09.663Z,15.20
2023-02-26T03:22:52.648Z,9.38
2023-02-26T03:25:29.600Z,11.52
2023-02-26T03:28:07.240Z,10.45
2023-02-26T03:30:59.167Z,14.68
2023-02-26T03:33:38.475Z,16.17
2023-02-26T03:36:13.875Z,17.75
2023-02-26T03:39:03.624Z,14.13
2023-02-26T03:41:36.708Z,13.50
2023-02-26T03:44:20.830Z,9.48
2023-02-26T03:46:52.995Z,13.57
2023-02-26T03:49:31.872Z,13.85
2023-02-26T03:52:01.589Z,11.50
2023-02-26T03:54:56.279Z,11.05
2023-02-26T03:57:52.060Z,14.63
2023-02-26T04:00:38.525Z,12.65
2023-02-26T04:03:22.300Z,11.98
2023-02-26T04:05:50.784Z,17.80
2023-02-26T04:08:21.088Z,22.48
2023-02-26T04:10:55.438Z,14.57
2023-02-26T04:13:22.849Z,15.45
2023-02-26T04:15:51.876Z,16.40
2023-02-26T04:18:19.466Z,11.10
2023-02-26T04:20:46.895Z,14.82
2023-02-26T04:23:14.583Z,15.70
2023-02-26T04:25:42.360Z,10.88
2023-02-26T04:28:11.211Z,7.43
2023-02-26T04:30:38.580Z,12.45
2023-02-26T04:33:08.484Z,12.57
2023-02-26T04:35:36.066Z,8.35
2023-02-26T04:38:03.522Z,17.27
2023-02-26T04:40:31.437Z,19.38
2023-02-26T04:43:00.026Z,16.42
2023-02-26T04:45:31.005Z,13.82
2023-02-26T04:47:58.260Z,11.18
2023-02-26T04:50:25.953Z,14.98
2023-02-26T04:52:54.505Z,12.43
2023-02-26T04:55:22.264Z,11.60
2023-02-26T04:57:49.667Z,12.82
2023-02-26T05:00:17.599Z,9.75
2023-02-26T05:02:45.023Z,8.93
2023-02-26T05:05:12.402Z,12.02
2023-02-26T05:07:39.784Z,16.55
2023-02-26T05:10:08.029Z,13.88
2023-02-26T05:12:35.547Z,13.38
2023-02-26T05:15:03.345Z,21.05
2023-02-26T05:17:31.160Z,14.30
2023-02-26T05:19:58.874Z,11.55
2023-02-26T05:22:27.245Z,14.10
2023-02-26T05:24:56.347Z,14.48
2023-02-26T05:27:23.629Z,13.43
2023-02-26T05:29:51.164Z,10.85
2023-02-26T05:32:18.669Z,14.20
2023-02-26T05:34:46.171Z,15.70
2023-02-26T05:37:13.562Z,13.88
2023-02-26T05:39:44.038Z,13.02
2023-02-26T05:42:11.462Z,11.48
2023-02-26T05:44:38.888Z,15.35
2023-02-26T05:47:06.457Z,19.13
2023-02-26T05:49:33.742Z,18.70
2023-02-26T05:52:01.330Z,15.50
2023-02-26T05:54:28.700Z,13.07
2023-02-26T05:56:56.281Z,8.50
2023-02-26T05:59:23.703Z,14.57
2023-02-26T06:01:51.405Z,20.45
2023-02-26T06:04:18.715Z,17.13
2023-02-26T06:06:46.025Z,19.55
2023-02-26T06:09:13.443Z,14.60
2023-02-26T06:11:40.975Z,15.52
2023-02-26T06:14:08.396Z,14.00
2023-02-26T06:16:35.980Z,12.50
2023-02-26T06:19:03.826Z,12.88
2023-02-26T06:21:31.259Z,13.18
2023-02-26T06:23:58.780Z,17.02
2023-02-26T06:26:26.547Z,16.55
2023-02-26T06:28:54.035Z,15.20
2023-02-26T06:31:21.471Z,23.30
2023-02-26T06:33:48.960Z,19.95
2023-02-26T06:36:17.513Z,16.70
2023-02-26T06:38:45.586Z,17.75
2023-02-26T06:41:13.923Z,13.48
2023-02-26T06:43:41.719Z,13.98
2023-02-26T06:46:09.068Z,21.60
2023-02-26T06:48:36.297Z,15.90
2023-02-26T06:51:04.021Z,19.15
2023-02-26T06:53:32.155Z,13.05
2023-02-26T06:55:59.544Z,16.58
2023-02-26T06:58:26.967Z,12.98
2023-02-26T07:00:54.408Z,17.45
2023-02-26T07:03:22.000Z,15.60
2023-02-26T07:05:52.341Z,18.83
2023-02-26T07:08:19.709Z,17.75
2023-02-26T07:10:49.409Z,19.33
2023-02-26T07:13:17.709Z,18.27
2023-02-26T07:15:46.343Z,14.88
2023-02-26T07:18:13.799Z,13.23
2023-02-26T07:20:42.828Z,18.40
2023-02-26T07:23:10.303Z,22.38
2023-02-26T07:25:37.809Z,16.98
2023-02-26T07:28:05.488Z,16.77
2023-02-26T07:30:33.195Z,14.60
2023-02-26T07:33:00.713Z,19.88
2023-02-26T07:35:28.086Z,14.25
2023-02-26T07:37:55.336Z,19.77
2023-02-26T07:40:22.753Z,15.55
2023-02-26T07:42:50.655Z,20.00
2023-02-26T07:45:22.424Z,17.25
2023-02-26T07:47:51.597Z,18.20
2023-02-26T07:50:19.977Z,18.00
2023-02-26T07:52:47.915Z,15.68
2023-02-26T07:55:15.407Z,17.08
2023-02-26T07:57:42.695Z,13.05
2023-02-26T08:00:11.632Z,20.58
2023-02-26T08:02:42.091Z,14.35
2023-02-26T08:05:09.667Z,16.63
2023-02-26T08:07:37.681Z,16.95
2023-02-26T08:10:06.236Z,15.10
2023-02-26T08:12:33.506Z,17.17
2023-02-26T08:15:00.764Z,20.33
2023-02-26T08:17:28.402Z,13.18
2023-02-26T08:19:55.889Z,16.00
2023-02-26T08:22:23.861Z,12.95
2023-02-26T08:24:51.167Z,13.60
2023-02-26T08:27:18.580Z,15.73
2023-02-26T08:29:46.492Z,18.30
2023-02-26T08:32:15.747Z,20.05
2023-02-26T08:34:43.772Z,16.85
2023-02-26T08:37:11.859Z,21.33
2023-02-26T08:39:39.631Z,14.48
2023-02-26T08:42:08.268Z,13.88
2023-02-26T08:44:35.780Z,15.80
2023-02-26T08:47:06.062Z,15.52
2023-02-26T08:49:35.001Z,13.38
2023-02-26T08:52:02.289Z,23.08
2023-02-26T08:54:29.557Z,14.05
2023-02-26T08:56:57.874Z,11.40
2023-02-26T08:59:28.194Z,17.60
2023-02-26T09:01:55.659Z,13.60
2023-02-26T09:04:23.038Z,9.63
2023-02-26T09:06:50.449Z,12.20
2023-02-26T09:09:19.255Z,22.27
2023-02-26T09:11:46.724Z,10.63
2023-02-26T09:14:14.803Z,14.02
2023-02-26T09:16:42.428Z,16.75
2023-02-26T09:19:10.056Z,22.05
2023-02-26T09:21:37.474Z,12.90
2023-02-26T09:24:04.854Z,14.80
2023-02-26T09:26:32.272Z,14.30
2023-02-26T09:28:59.758Z,11.73
2023-02-26T09:31:28.762Z,13.00
2023-02-26T09:33:56.207Z,12.57
2023-02-26T09:36:24.152Z,12.32
2023-02-26T09:38:52.168Z,11.55
2023-02-26T09:41:23.870Z,24.98
2023-02-26T09:44:13.690Z,13.40
2023-02-26T09:50:06.299Z,8.32
2023-02-26T09:52:42.165Z,10.98
2023-02-26T09:55:26.783Z,9.70
2023-02-26T09:58:05.284Z,9.38
2023-02-26T10:00:37.962Z,16.45
2023-02-26T10:03:30.284Z,12.80
2023-02-26T10:06:09.470Z,9.95
2023-02-26T10:08:47.042Z,7.97
2023-02-26T10:11:20.148Z,11.27
2023-02-26T10:13:57.510Z,16.35
2023-02-26T10:16:29.465Z,11.63
2023-02-26T10:19:10.574Z,10.13
2023-02-26T10:21:49.260Z,10.13
2023-02-26T10:24:27.536Z,14.02
2023-02-26T10:27:03.035Z,8.77
2023-02-26T10:29:44.653Z,10.43
2023-02-26T10:32:15.174Z,9.77
2023-02-26T10:34:57.739Z,9.50
2023-02-26T10:37:47.002Z,10.75
2023-02-26T10:40:34.809Z,7.93
2023-02-26T10:43:10.481Z,5.57
2023-02-26T10:46:30.030Z,8.25
2023-02-26T10:49:33.480Z,4.95
2023-02-26T10:52:10.796Z,6.78
2023-02-26T10:54:45.259Z,11.18
2023-02-26T10:57:27.586Z,6.63
2023-02-26T10:59:55.165Z,5.70
2023-02-26T11:02:36.288Z,8.13
2023-02-26T11:05:08.077Z,7.43
2023-02-26T11:07:38.092Z,7.05
2023-02-26T11:12:34.894Z,5.22
2023-02-26T11:15:02.288Z,6.70
2023-02-26T11:17:32.588Z,6.18
2023-02-26T11:20:05.394Z,5.93
2023-02-26T11:22:36.573Z,7.63
2023-02-26T11:25:04.962Z,4.00
2023-02-26T11:27:37.430Z,8.85
2023-02-26T11:30:15.510Z,6.22
2023-02-26T11:32:45.794Z,7.75
2023-02-26T11:35:15.023Z,7.57
2023-02-26T11:37:47.768Z,9.20
2023-02-26T11:40:32.539Z,8.68
2023-02-26T11:43:04.209Z,7.78
2023-02-26T11:45:35.465Z,6.15
2023-02-26T11:48:08.185Z,2.78
2023-02-26T11:50:45.158Z,5.13
2023-02-26T11:53:34.275Z,9.50
2023-02-26T11:56:09.734Z,8.33
2023-02-26T11:58:40.014Z,8.35
2023-02-26T12:01:11.708Z,8.02
2023-02-26T12:03:42.019Z,9.00
2023-02-26T12:06:19.868Z,5.32
2023-02-26T12:08:47.959Z,8.68
2023-02-26T12:11:41.119Z,8.80
2023-02-26T12:14:16.984Z,6.88
2023-02-26T12:16:50.133Z,8.07
2023-02-26T12:19:32.630Z,8.50
2023-02-26T12:22:12.251Z,4.75
2023-02-26T12:24:54.460Z,7.15
2023-02-26T12:27:40.526Z,8.13
2023-02-26T12:30:14.014Z,10.00
2023-02-26T12:32:58.620Z,7.32
2023-02-26T12:35:57.309Z,10.80
2023-02-26T12:38:26.159Z,9.48
2023-02-26T12:41:12.393Z,5.97
2023-02-26T12:43:55.624Z,7.28
2023-02-26T12:46:41.731Z,6.72
2023-02-26T12:49:34.608Z,5.72
2023-02-26T12:52:24.108Z,9.38
2023-02-26T12:54:57.326Z,8.80
2023-02-26T12:57:37.211Z,7.93
2023-02-26T13:00:17.235Z,6.05
2023-02-26T13:05:32.960Z,7.13
2023-02-26T13:08:18.645Z,9.13
2023-02-26T13:10:55.695Z,5.70
2023-02-26T13:13:41.944Z,6.03
2023-02-26T13:16:30.927Z,4.65
2023-02-26T13:19:01.181Z,7.45
2023-02-26T13:21:33.238Z,6.72
2023-02-26T13:24:23.473Z,6.60
2023-02-26T13:26:51.644Z,9.48
2023-02-26T13:29:41.678Z,9.75
2023-02-26T13:32:19.045Z,8.85
2023-02-26T13:34:58.761Z,5.50
2023-02-26T13:37:30.167Z,8.18
2023-02-26T13:40:24.916Z,7.03
2023-02-26T13:43:20.320Z,7.22
2023-02-26T13:46:12.388Z,7.13
2023-02-26T13:48:52.436Z,4.85
2023-02-26T13:54:02.398Z,5.78
2023-02-26T13:56:32.807Z,3.90
2023-02-26T13:59:06.081Z,4.57
2023-02-26T14:01:51.777Z,8.10
2023-02-26T14:04:19.134Z,5.47
2023-02-26T14:06:48.696Z,8.95
2023-02-26T14:09:22.050Z,3.47
2023-02-26T14:11:55.474Z,6.57
2023-02-26T14:14:26.919Z,7.70
2023-02-26T14:17:14.466Z,4.35
2023-02-26T14:20:09.094Z,5.22
2023-02-26T14:22:41.803Z,4.45
2023-02-26T14:25:12.197Z,5.18
2023-02-26T14:27:44.548Z,5.72
2023-02-26T14:30:12.013Z,4.70
2023-02-26T14:33:07.723Z,7.35
2023-02-26T14:35:56.264Z,5.72
2023-02-26T14:38:24.750Z,6.18
2023-02-26T14:40:57.974Z,6.75
2023-02-26T14:43:46.710Z,3.97
2023-02-26T14:46:14.300Z,6.57
2023-02-26T14:48:42.164Z,8.55
2023-02-26T14:51:39.067Z,6.50
2023-02-26T14:54:34.538Z,5.82
2023-02-26T14:57:02.451Z,5.43
2023-02-26T14:59:46.244Z,4.68
2023-02-26T15:02:38.100Z,4.85
2023-02-26T15:05:12.376Z,3.45
2023-02-26T15:08:02.405Z,7.72
2023-02-26T15:10:51.772Z,5.03
2023-02-26T15:13:34.439Z,4.80
2023-02-26T15:16:12.437Z,4.18
2023-02-26T15:18:48.873Z,8.30
2023-02-26T15:21:38.067Z,7.97
2023-02-26T15:24:07.560Z,7.13
2023-02-26T15:26:36.493Z,4.13
2023-02-26T15:29:07.314Z,2.75
2023-02-26T15:31:37.562Z,9.18
2023-02-26T15:34:05.074Z,5.63
2023-02-26T15:36:32.623Z,5.70
2023-02-26T15:39:03.828Z,4.80
2023-02-26T15:41:31.977Z,5.80
2023-02-26T15:44:05.461Z,4.95
2023-02-26T15:46:36.152Z,6.07
2023-02-26T15:49:19.402Z,6.13
2023-02-26T15:51:47.320Z,6.85
2023-02-26T15:54:17.992Z,9.98
2023-02-26T15:56:46.806Z,4.40
2023-02-26T15:59:18.974Z,6.97
2023-02-26T16:01:48.942Z,4.55
2023-02-26T16:06:57.005Z,9.65
2023-02-26T16:09:34.724Z,3.95
2023-02-26T16:12:13.049Z,8.55
2023-02-26T16:14:43.939Z,4.57
2023-02-26T16:17:14.975Z,5.75
2023-02-26T16:19:45.347Z,10.82
2023-02-26T16:22:35.315Z,4.45
2023-02-26T16:25:07.568Z,4.35
2023-02-26T16:27:35.701Z,5.30
2023-02-26T16:30:05.909Z,4.05
2023-02-26T16:32:35.581Z,5.22
2023-02-26T16:35:13.891Z,4.50
2023-02-26T16:37:44.707Z,8.35
2023-02-26T16:40:25.279Z,6.82
2023-02-26T16:43:33.496Z,5.30
2023-02-26T16:46:02.212Z,13.70
2023-02-26T16:48:40.386Z,3.72
2023-02-26T16:51:20.041Z,5.13
2023-02-26T16:53:51.044Z,7.95
2023-02-26T16:56:24.042Z,6.72
2023-02-26T16:59:07.547Z,4.25
2023-02-26T17:01:45.002Z,4.43
2023-02-26T17:04:15.639Z,3.78
2023-02-26T17:06:43.342Z,7.38
2023-02-26T17:09:37.503Z,7.95
2023-02-26T17:12:16.006Z,9.20
2023-02-26T17:14:45.779Z,6.20
2023-02-26T17:17:13.133Z,5.97
2023-02-26T17:19:40.646Z,6.03
2023-02-26T17:22:12.994Z,4.53
2023-02-26T17:24:44.322Z,5.05
2023-02-26T17:27:18.475Z,5.28
2023-02-26T17:29:47.052Z,5.78
2023-02-26T17:32:20.774Z,5.20
2023-02-26T17:34:48.571Z,6.75
2023-02-26T17:37:16.481Z,9.18
2023-02-26T17:39:44.312Z,4.57
2023-02-26T17:42:13.531Z,5.03
2023-02-26T17:44:41.105Z,4.43
2023-02-26T17:47:27.258Z,6.82
2023-02-26T17:49:54.893Z,8.10
2023-02-26T17:52:23.288Z,6.00
2023-02-26T17:54:50.635Z,7.32
2023-02-26T17:57:21.050Z,6.45
2023-02-26T17:59:50.116Z,7.63
2023-02-26T18:02:22.273Z,4.00
2023-02-26T18:04:49.829Z,6.05
2023-02-26T18:07:17.460Z,6.88
2023-02-26T18:09:45.942Z,7.10
2023-02-26T18:12:18.799Z,5.25
2023-02-26T18:14:46.227Z,7.70
2023-02-26T18:17:24.038Z,8.27
2023-02-26T18:19:51.605Z,10.40
2023-02-26T18:22:24.160Z,5.22
2023-02-26T18:24:52.502Z,6.53
2023-02-26T18:27:22.334Z,6.97
2023-02-26T18:29:50.460Z,8.18
2023-02-26T18:32:25.098Z,8.02
2023-02-26T18:34:52.861Z,6.35
2023-02-26T18:37:25.244Z,5.88
2023-02-26T18:39:53.265Z,6.43
2023-02-26T18:42:21.815Z,7.90
2023-02-26T18:44:49.882Z,6.45
2023-02-26T18:47:18.959Z,8.07
2023-02-26T18:49:47.480Z,5.97
2023-02-26T18:52:15.542Z,7.43
2023-02-26T18:54:43.046Z,4.65
2023-02-26T18:57:10.446Z,6.85
2023-02-26T18:59:37.656Z,11.40
2023-02-26T19:02:06.937Z,6.07
2023-02-26T19:04:34.717Z,6.95
2023-02-26T19:07:02.163Z,4.75
2023-02-26T19:09:29.640Z,5.28
2023-02-26T19:11:57.651Z,7.32
2023-02-26T19:14:25.607Z,6.40
2023-02-26T19:16:55.480Z,6.80
2023-02-26T19:19:22.862Z,7.07
2023-02-26T19:21:50.365Z,7.95
2023-02-26T19:24:17.953Z,5.28
2023-02-26T19:26:45.646Z,5.60
2023-02-26T19:29:18.361Z,8.93
2023-02-26T19:31:46.701Z,8.77
2023-02-26T19:34:14.353Z,9.05
2023-02-26T19:36:47.989Z,6.40
2023-02-26T19:39:16.766Z,6.53
2023-02-26T19:41:45.791Z,7.72
2023-02-26T19:44:17.109Z,4.28
2023-02-26T19:46:44.682Z,7.20
2023-02-26T19:49:12.141Z,6.07
2023-02-26T19:51:39.528Z,7.72
2023-02-26T19:54:07.477Z,7.03
2023-02-26T19:56:35.352Z,14.60
2023-02-26T19:59:02.822Z,5.65
2023-02-26T20:01:31.211Z,7.90
2023-02-26T20:03:59.115Z,4.95
2023-02-26T20:06:26.857Z,7.00
2023-02-26T20:08:54.139Z,4.85
2023-02-26T20:11:21.423Z,6.93
2023-02-26T20:13:48.828Z,7.22
2023-02-26T20:16:16.897Z,6.00
2023-02-26T20:18:45.964Z,5.78
2023-02-26T20:21:13.785Z,5.38
2023-02-26T20:23:41.501Z,5.50
2023-02-26T20:26:23.126Z,11.35
2023-02-26T20:28:51.782Z,5.32
2023-02-26T20:31:19.345Z,6.72
2023-02-26T20:33:46.752Z,7.22
2023-02-26T20:36:14.574Z,4.13
2023-02-26T20:38:43.416Z,4.25
2023-02-26T20:41:10.917Z,5.07
2023-02-26T20:43:38.464Z,6.32
2023-02-26T20:46:06.373Z,5.88
2023-02-26T20:48:34.723Z,5.95
2023-02-26T20:51:05.309Z,5.35
2023-02-26T20:53:33.070Z,4.28
2023-02-26T20:56:00.652Z,5.25
2023-02-26T20:58:28.076Z,6.35
2023-02-26T21:00:55.879Z,5.75
2023-02-26T21:03:23.894Z,7.38
2023-02-26T21:05:51.438Z,5.82
2023-02-26T21:08:19.178Z,7.78
2023-02-26T21:10:46.491Z,6.47
2023-02-26T21:13:13.996Z,6.45
2023-02-26T21:15:41.488Z,5.20
2023-02-26T21:18:09.052Z,7.63
2023-02-26T21:20:36.978Z,4.70
2023-02-26T21:23:04.300Z,6.65
2023-02-26T21:25:31.692Z,6.30
2023-02-26T21:27:59.447Z,5.80
2023-02-26T21:30:28.876Z,4.68
2023-02-26T21:32:56.310Z,6.38
2023-02-26T21:35:24.409Z,6.20
2023-02-26T21:37:51.883Z,7.47
2023-02-26T21:40:19.433Z,6.85
2023-02-26T21:42:46.882Z,6.47
2023-02-26T21:45:14.333Z,5.45
2023-02-26T21:47:41.750Z,7.07
2023-02-26T21:50:09.598Z,4.18
2023-02-26T21:52:37.000Z,5.70
2023-02-26T21:55:04.590Z,4.65
2023-02-26T21:57:32.540Z,6.90
2023-02-26T22:00:00.119Z,6.60
2023-02-26T22:02:27.681Z,9.70
2023-02-26T22:04:54.966Z,6.38
2023-02-26T22:07:22.398Z,10.40
2023-02-26T22:09:49.985Z,8.15
2023-02-26T22:12:17.774Z,5.68
2023-02-26T22:14:45.199Z,6.85
2023-02-26T22:17:12.489Z,8.02
2023-02-26T22:19:39.906Z,4.68
2023-02-26T22:22:07.601Z,6.45
2023-02-26T22:24:35.115Z,5.90
2023-02-26T22:27:03.185Z,6.32
2023-02-26T22:29:30.481Z,5.40
2023-02-26T22:31:58.028Z,8.07
2023-02-26T22:34:25.675Z,7.63
2023-02-26T22:36:53.665Z,9.40
2023-02-26T22:39:21.513Z,5.32
2023-02-26T22:41:49.080Z,7.22
2023-02-26T22:44:16.636Z,9.25
2023-02-26T22:46:44.227Z,8.55
2023-02-26T22:49:11.514Z,7.32
2023-02-26T22:51:39.100Z,9.73
2023-02-26T22:54:06.708Z,8.35
2023-02-26T22:56:34.361Z,7.65
2023-02-26T22:59:02.790Z,7.93
2023-02-26T23:01:30.271Z,10.90
2023-02-26T23:03:59.254Z,7.13
2023-02-26T23:06:27.035Z,7.83
2023-02-26T23:08:54.292Z,8.73
2023-02-26T23:11:21.632Z,7.18
2023-02-26T23:13:49.093Z,6.82
2023-02-26T23:16:16.899Z,6.40
2023-02-26T23:18:45.688Z,7.60
2023-02-26T23:21:13.036Z,8.38
2023-02-26T23:23:40.639Z,8.07
2023-02-26T23:26:08.153Z,6.78
2023-02-26T23:28:36.400Z,5.45
2023-02-26T23:31:03.978Z,7.38
2023-02-26T23:33:31.795Z,8.70
2023-02-26T23:35:59.190Z,12.73
2023-02-26T23:38:26.816Z,6.43
2023-02-26T23:40:54.183Z,7.38
2023-02-26T23:43:22.853Z,9.45
2023-02-26T23:45:50.366Z,11.32
2023-02-26T23:48:17.770Z,10.43
2023-02-26T23:50:48.266Z,7.38
2023-02-26T23:53:34.363Z,6.82
2023-02-26T23:56:02.603Z,10.15
2023-02-26T23:58:30.548Z,11.45
